KAY213 LPFR-LXGB
Flight info
| Callsign | KAY213 |
|---|---|
| Flight time | 0h 28m |
| Altitude | 19000 |
| Route | NIRAK Y136 NAPES/N0396F180 N747 SVL/N0391F170 M744 MAR N864 PIMOS/N0386F160 |
| Aircraft | A319/M-SDE3FGHIRWY/LB1 |
Departure
| Time | 2026-04-27 18:24 |
|---|---|
| Airport | Faro - Gago Coutinho International Airport (LPFR) |
Arrival
| Time | 2026-04-27 18:52 |
|---|---|
| Airport | Gibraltar Airport (LXGB) |
| Time | Latitude | Longitude | Altitude | Speed | Heading |
|---|---|---|---|---|---|
| 2026-04-27 17:50 | 37.01871 | -7.96504 | 21 ft | 0 kts | 9° |
| 2026-04-27 18:16 | 37.01849 | -7.96509 | 21 ft | 4 kts | 12° |
| 2026-04-27 18:17 | 37.01823 | -7.96516 | 22 ft | 4 kts | 11° |
| 2026-04-27 18:17 | 37.01797 | -7.96520 | 20 ft | 4 kts | 347° |
| 2026-04-27 18:17 | 37.01784 | -7.96511 | 20 ft | 1 kts | 282° |
| 2026-04-27 18:17 | 37.01783 | -7.96506 | 22 ft | 0 kts | 282° |
| 2026-04-27 18:19 | 37.01783 | -7.96507 | 23 ft | 0 kts | 277° |
| 2026-04-27 18:20 | 37.01780 | -7.96510 | 20 ft | 1 kts | 239° |
| 2026-04-27 18:20 | 37.01769 | -7.96509 | 20 ft | 4 kts | 187° |
| 2026-04-27 18:20 | 37.01718 | -7.96523 | 22 ft | 9 kts | 190° |
| 2026-04-27 18:20 | 37.01646 | -7.96536 | 21 ft | 11 kts | 175° |
| 2026-04-27 18:21 | 37.01608 | -7.96451 | 21 ft | 13 kts | 100° |
| 2026-04-27 18:21 | 37.01590 | -7.96329 | 20 ft | 15 kts | 100° |
| 2026-04-27 18:21 | 37.01570 | -7.96187 | 22 ft | 18 kts | 100° |
| 2026-04-27 18:21 | 37.01547 | -7.96026 | 20 ft | 20 kts | 99° |
| 2026-04-27 18:22 | 37.01527 | -7.95888 | 23 ft | 14 kts | 103° |
| 2026-04-27 18:22 | 37.01462 | -7.95834 | 20 ft | 10 kts | 188° |
| 2026-04-27 18:22 | 37.01437 | -7.95840 | 20 ft | 0 kts | 193° |
| 2026-04-27 18:23 | 37.01421 | -7.95845 | 20 ft | 6 kts | 191° |
| 2026-04-27 18:23 | 37.01359 | -7.95861 | 22 ft | 10 kts | 204° |
| 2026-04-27 18:23 | 37.01355 | -7.95951 | 23 ft | 14 kts | 280° |
| 2026-04-27 18:23 | 37.01412 | -7.96348 | 22 ft | 100 kts | 280° |
| 2026-04-27 18:24 | 37.01574 | -7.97508 | 597 ft | 141 kts | 279° |
| 2026-04-27 18:24 | 37.01744 | -7.98723 | 1695 ft | 147 kts | 278° |
| 2026-04-27 18:24 | 37.01659 | -8.00020 | 2353 ft | 165 kts | 245° |
| 2026-04-27 18:24 | 37.00839 | -8.01142 | 2918 ft | 190 kts | 209° |
| 2026-04-27 18:25 | 36.99486 | -8.01491 | 3475 ft | 213 kts | 174° |
| 2026-04-27 18:25 | 36.98048 | -8.00785 | 4028 ft | 237 kts | 137° |
| 2026-04-27 18:25 | 36.96969 | -7.99115 | 4832 ft | 257 kts | 121° |
| 2026-04-27 18:25 | 36.95949 | -7.97233 | 6000 ft | 266 kts | 121° |
| 2026-04-27 18:26 | 36.94906 | -7.95281 | 7144 ft | 274 kts | 123° |
| 2026-04-27 18:26 | 36.93835 | -7.93270 | 8267 ft | 282 kts | 124° |
| 2026-04-27 18:26 | 36.92723 | -7.91198 | 9300 ft | 293 kts | 126° |
| 2026-04-27 18:26 | 36.91568 | -7.89067 | 9802 ft | 300 kts | 127° |
| 2026-04-27 18:27 | 36.90379 | -7.86883 | 10471 ft | 320 kts | 127° |
| 2026-04-27 18:27 | 36.89078 | -7.84498 | 11014 ft | 345 kts | 126° |
| 2026-04-27 18:27 | 36.87676 | -7.81933 | 11468 ft | 369 kts | 126° |
| 2026-04-27 18:27 | 36.86188 | -7.79211 | 11961 ft | 388 kts | 126° |
| 2026-04-27 18:28 | 36.84655 | -7.76396 | 12790 ft | 395 kts | 126° |
| 2026-04-27 18:28 | 36.83102 | -7.73541 | 13696 ft | 400 kts | 126° |
| 2026-04-27 18:28 | 36.81551 | -7.70691 | 14503 ft | 404 kts | 126° |
| 2026-04-27 18:28 | 36.79966 | -7.67784 | 15303 ft | 408 kts | 126° |
| 2026-04-27 18:29 | 36.78359 | -7.64843 | 16112 ft | 412 kts | 126° |
| 2026-04-27 18:29 | 36.76733 | -7.61870 | 16876 ft | 417 kts | 126° |
| 2026-04-27 18:29 | 36.75089 | -7.58867 | 17605 ft | 421 kts | 126° |
| 2026-04-27 18:29 | 36.73427 | -7.55835 | 18302 ft | 426 kts | 126° |
| 2026-04-27 18:30 | 36.71748 | -7.52779 | 18743 ft | 429 kts | 126° |
| 2026-04-27 18:30 | 36.70062 | -7.49712 | 18893 ft | 429 kts | 126° |
| 2026-04-27 18:30 | 36.68338 | -7.46582 | 18937 ft | 444 kts | 126° |
| 2026-04-27 18:30 | 36.66585 | -7.43394 | 18936 ft | 449 kts | 126° |
| 2026-04-27 18:31 | 36.64841 | -7.40222 | 18933 ft | 450 kts | 126° |
| 2026-04-27 18:31 | 36.63074 | -7.37010 | 18933 ft | 450 kts | 126° |
| 2026-04-27 18:31 | 36.61304 | -7.33798 | 18932 ft | 450 kts | 126° |
| 2026-04-27 18:31 | 36.59530 | -7.30589 | 18932 ft | 450 kts | 126° |
| 2026-04-27 18:32 | 36.57755 | -7.27381 | 18928 ft | 450 kts | 126° |
| 2026-04-27 18:32 | 36.55982 | -7.24178 | 18929 ft | 450 kts | 126° |
| 2026-04-27 18:32 | 36.54210 | -7.20977 | 18927 ft | 449 kts | 127° |
| 2026-04-27 18:32 | 36.52436 | -7.17779 | 18921 ft | 449 kts | 127° |
| 2026-04-27 18:33 | 36.50684 | -7.14626 | 18923 ft | 449 kts | 127° |
| 2026-04-27 18:33 | 36.48911 | -7.11438 | 18924 ft | 449 kts | 127° |
| 2026-04-27 18:33 | 36.47137 | -7.08251 | 18922 ft | 449 kts | 127° |
| 2026-04-27 18:33 | 36.45366 | -7.05069 | 18923 ft | 449 kts | 127° |
| 2026-04-27 18:34 | 36.43589 | -7.01884 | 18925 ft | 449 kts | 127° |
| 2026-04-27 18:34 | 36.41814 | -6.98701 | 18920 ft | 449 kts | 127° |
| 2026-04-27 18:34 | 36.40035 | -6.95511 | 18919 ft | 449 kts | 127° |
| 2026-04-27 18:34 | 36.38260 | -6.92333 | 18920 ft | 449 kts | 127° |
| 2026-04-27 18:35 | 36.36478 | -6.89148 | 18924 ft | 449 kts | 127° |
| 2026-04-27 18:35 | 36.34722 | -6.86009 | 18917 ft | 449 kts | 127° |
| 2026-04-27 18:35 | 36.32941 | -6.82832 | 18914 ft | 449 kts | 128° |
| 2026-04-27 18:35 | 36.31159 | -6.79656 | 18915 ft | 449 kts | 128° |
| 2026-04-27 18:36 | 36.29374 | -6.76475 | 18919 ft | 448 kts | 129° |
| 2026-04-27 18:36 | 36.27595 | -6.73310 | 18922 ft | 448 kts | 129° |
| 2026-04-27 18:36 | 36.25811 | -6.70137 | 18917 ft | 448 kts | 128° |
| 2026-04-27 18:36 | 36.24032 | -6.66979 | 18918 ft | 448 kts | 127° |
| 2026-04-27 18:37 | 36.22250 | -6.63820 | 18919 ft | 447 kts | 129° |
| 2026-04-27 18:37 | 36.20469 | -6.60663 | 18918 ft | 447 kts | 128° |
| 2026-04-27 18:37 | 36.18689 | -6.57501 | 18919 ft | 447 kts | 129° |
| 2026-04-27 18:37 | 36.16940 | -6.54395 | 18914 ft | 446 kts | 128° |
| 2026-04-27 18:38 | 36.15162 | -6.51246 | 18910 ft | 446 kts | 127° |
| 2026-04-27 18:38 | 36.13379 | -6.48096 | 18908 ft | 446 kts | 127° |
| 2026-04-27 18:38 | 36.11598 | -6.44956 | 18903 ft | 446 kts | 127° |
| 2026-04-27 18:38 | 36.09816 | -6.41817 | 18911 ft | 445 kts | 127° |
| 2026-04-27 18:39 | 36.08040 | -6.38692 | 18911 ft | 444 kts | 129° |
| 2026-04-27 18:39 | 36.06263 | -6.35566 | 18907 ft | 444 kts | 130° |
| 2026-04-27 18:39 | 36.04484 | -6.32441 | 18906 ft | 444 kts | 128° |
| 2026-04-27 18:39 | 36.02710 | -6.29329 | 18905 ft | 444 kts | 128° |
| 2026-04-27 18:40 | 36.00958 | -6.26262 | 18897 ft | 439 kts | 128° |
| 2026-04-27 18:40 | 35.99233 | -6.23233 | 18895 ft | 426 kts | 129° |
| 2026-04-27 18:40 | 35.97538 | -6.20258 | 18889 ft | 422 kts | 128° |
| 2026-04-27 18:40 | 35.95858 | -6.17308 | 18123 ft | 419 kts | 130° |
| 2026-04-27 18:41 | 35.94160 | -6.14336 | 16784 ft | 425 kts | 128° |
| 2026-04-27 18:41 | 35.92454 | -6.11355 | 15546 ft | 426 kts | 128° |
| 2026-04-27 18:41 | 35.90745 | -6.08369 | 14362 ft | 426 kts | 128° |
| 2026-04-27 18:41 | 35.89039 | -6.05390 | 13264 ft | 424 kts | 128° |
| 2026-04-27 18:42 | 35.87353 | -6.02448 | 12183 ft | 415 kts | 129° |
| 2026-04-27 18:42 | 35.86257 | -6.00531 | 11372 ft | 411 kts | 126° |
| 2026-04-27 18:42 | 35.84728 | -5.96330 | 9800 ft | 406 kts | 104° |
| 2026-04-27 18:42 | 35.84513 | -5.92906 | 8553 ft | 398 kts | 86° |
| 2026-04-27 18:43 | 35.85092 | -5.89628 | 7354 ft | 388 kts | 70° |
| 2026-04-27 18:43 | 35.86022 | -5.86551 | 6219 ft | 378 kts | 69° |
| 2026-04-27 18:43 | 35.86934 | -5.83565 | 5008 ft | 364 kts | 69° |
| 2026-04-27 18:43 | 35.87801 | -5.80724 | 3876 ft | 344 kts | 70° |
| 2026-04-27 18:44 | 35.88604 | -5.78083 | 3381 ft | 312 kts | 71° |
| 2026-04-27 18:44 | 35.89331 | -5.75671 | 3492 ft | 300 kts | 70° |
| 2026-04-27 18:44 | 35.90064 | -5.73229 | 3733 ft | 306 kts | 70° |
| 2026-04-27 18:44 | 35.90801 | -5.70767 | 3889 ft | 313 kts | 71° |
| 2026-04-27 18:45 | 35.91540 | -5.68297 | 3942 ft | 301 kts | 72° |
| 2026-04-27 18:45 | 35.92259 | -5.65899 | 3966 ft | 299 kts | 72° |
| 2026-04-27 18:45 | 35.92981 | -5.63492 | 3967 ft | 301 kts | 72° |
| 2026-04-27 18:45 | 35.93704 | -5.61085 | 4014 ft | 298 kts | 72° |
| 2026-04-27 18:46 | 35.94422 | -5.58697 | 4018 ft | 297 kts | 72° |
| 2026-04-27 18:46 | 35.95142 | -5.56301 | 4015 ft | 300 kts | 72° |
| 2026-04-27 18:46 | 35.95862 | -5.53900 | 4023 ft | 296 kts | 72° |
| 2026-04-27 18:46 | 35.96574 | -5.51517 | 4018 ft | 297 kts | 71° |
| 2026-04-27 18:47 | 35.97285 | -5.49135 | 4025 ft | 299 kts | 72° |
| 2026-04-27 18:47 | 35.97998 | -5.46740 | 4028 ft | 290 kts | 72° |
| 2026-04-27 18:47 | 35.98654 | -5.44553 | 3968 ft | 256 kts | 71° |
| 2026-04-27 18:47 | 35.99262 | -5.42518 | 3716 ft | 247 kts | 72° |
| 2026-04-27 18:48 | 36.00062 | -5.40685 | 3381 ft | 246 kts | 49° |
| 2026-04-27 18:48 | 36.01565 | -5.39713 | 2998 ft | 247 kts | 19° |
| 2026-04-27 18:48 | 36.03255 | -5.39548 | 2645 ft | 240 kts | 7° |
| 2026-04-27 18:48 | 36.04889 | -5.39662 | 2295 ft | 232 kts | 4° |
| 2026-04-27 18:49 | 36.06464 | -5.39821 | 1950 ft | 220 kts | 3° |
| 2026-04-27 18:49 | 36.07928 | -5.39956 | 1653 ft | 201 kts | 4° |
| 2026-04-27 18:49 | 36.09201 | -5.40052 | 1550 ft | 169 kts | 6° |
| 2026-04-27 18:49 | 36.10248 | -5.40121 | 1546 ft | 138 kts | 9° |
| 2026-04-27 18:50 | 36.11163 | -5.40159 | 1352 ft | 128 kts | 11° |
| 2026-04-27 18:50 | 36.12016 | -5.40183 | 1179 ft | 120 kts | 9° |
| 2026-04-27 18:50 | 36.12848 | -5.40206 | 1036 ft | 118 kts | 10° |
| 2026-04-27 18:50 | 36.13652 | -5.40082 | 764 ft | 114 kts | 25° |
| 2026-04-27 18:51 | 36.14340 | -5.39670 | 624 ft | 106 kts | 39° |
| 2026-04-27 18:51 | 36.14894 | -5.39085 | 509 ft | 105 kts | 54° |
| 2026-04-27 18:51 | 36.15053 | -5.38236 | 441 ft | 106 kts | 89° |
| 2026-04-27 18:51 | 36.15046 | -5.37283 | 343 ft | 112 kts | 82° |
| 2026-04-27 18:52 | 36.15078 | -5.36364 | 122 ft | 106 kts | 83° |
| 2026-04-27 18:52 | 36.15107 | -5.35420 | 30 ft | 103 kts | 85° |
| 2026-04-27 18:52 | 36.15129 | -5.34796 | 22 ft | 33 kts | 88° |
| 2026-04-27 18:53 | 36.15235 | -5.34701 | 21 ft | 9 kts | 308° |
| 2026-04-27 18:53 | 36.15272 | -5.34718 | 17 ft | 4 kts | 354° |
| 2026-04-27 18:53 | 36.15297 | -5.34720 | 17 ft | 2 kts | 357° |
| 2026-04-27 18:53 | 36.15302 | -5.34720 | 17 ft | 0 kts | 357° |